createdAt,value
2022-07-29T00:02:29.565Z,14.40
2022-07-29T00:04:56.671Z,14.40
2022-07-29T00:07:23.583Z,14.40
2022-07-29T00:09:52.510Z,14.40
2022-07-29T00:12:25.200Z,14.50
2022-07-29T00:14:57.310Z,14.50
2022-07-29T00:17:25.331Z,14.50
2022-07-29T00:19:52.527Z,14.40
2022-07-29T00:22:19.981Z,14.50
2022-07-29T00:24:49.747Z,14.50
2022-07-29T00:27:17.306Z,14.50
2022-07-29T00:29:44.216Z,14.50
2022-07-29T00:32:11.240Z,14.50
2022-07-29T00:34:56.675Z,14.50
2022-07-29T00:37:24.501Z,14.50
2022-07-29T00:39:51.996Z,14.50
2022-07-29T00:42:18.991Z,14.50
2022-07-29T00:44:46.381Z,14.50
2022-07-29T00:47:13.704Z,14.50
2022-07-29T00:49:42.346Z,14.60
2022-07-29T00:52:12.120Z,14.60
2022-07-29T00:54:44.554Z,14.50
2022-07-29T00:57:12.693Z,14.50
2022-07-29T00:59:41.099Z,14.50
2022-07-29T01:02:08.670Z,14.50
2022-07-29T01:04:36.930Z,14.50
2022-07-29T01:07:05.288Z,14.40
2022-07-29T01:09:46.089Z,14.40
2022-07-29T01:12:20.428Z,14.30
2022-07-29T01:14:48.818Z,14.40
2022-07-29T01:17:23.497Z,14.30
2022-07-29T01:19:56.301Z,14.30
2022-07-29T01:22:35.700Z,14.30
2022-07-29T01:25:18.032Z,14.20
2022-07-29T01:28:15.612Z,14.20
2022-07-29T01:30:45.554Z,14.10
2022-07-29T01:33:38.755Z,14.10
2022-07-29T01:36:16.303Z,14.10
2022-07-29T01:38:46.789Z,14.10
2022-07-29T01:41:21.090Z,14.10
2022-07-29T01:43:58.697Z,14.10
2022-07-29T01:46:39.989Z,14.10
2022-07-29T01:49:17.709Z,14.10
2022-07-29T01:52:13.203Z,14.10
2022-07-29T01:54:53.660Z,14.10
2022-07-29T01:57:26.067Z,14.20
2022-07-29T01:59:55.416Z,14.20
2022-07-29T02:02:24.333Z,14.10
2022-07-29T02:04:53.479Z,14.20
2022-07-29T02:07:22.793Z,14.20
2022-07-29T02:09:52.746Z,14.20
2022-07-29T02:12:22.306Z,14.20
2022-07-29T02:14:53.099Z,14.10
2022-07-29T02:17:28.784Z,14.10
2022-07-29T02:20:00.426Z,14.10
2022-07-29T02:22:32.921Z,14.10
2022-07-29T02:25:01.024Z,14.10
2022-07-29T02:27:30.724Z,14.10
2022-07-29T02:29:59.623Z,14.10
2022-07-29T02:32:28.668Z,14.10
2022-07-29T02:34:57.805Z,14.10
2022-07-29T02:37:26.963Z,14.10
2022-07-29T02:39:56.117Z,14.10
2022-07-29T02:42:25.108Z,14.20
2022-07-29T02:44:52.683Z,14.10
2022-07-29T02:47:41.353Z,14.20
2022-07-29T02:50:18.788Z,14.20
2022-07-29T02:52:53.498Z,14.20
2022-07-29T02:55:37.960Z,14.20
2022-07-29T02:58:13.580Z,14.20
2022-07-29T03:00:42.268Z,14.20
2022-07-29T03:03:14.012Z,14.20
2022-07-29T03:05:41.627Z,14.20
2022-07-29T03:08:11.733Z,14.20
2022-07-29T03:10:41.633Z,14.30
2022-07-29T03:13:09.269Z,14.30
2022-07-29T03:15:36.725Z,14.30
2022-07-29T03:18:04.360Z,14.20
2022-07-29T03:20:31.258Z,14.30
2022-07-29T03:22:58.039Z,14.30
2022-07-29T03:25:24.892Z,14.30
2022-07-29T03:27:51.719Z,14.30
2022-07-29T03:30:21.727Z,14.30
2022-07-29T03:32:49.469Z,14.30
2022-07-29T03:35:19.273Z,14.40
2022-07-29T03:37:46.407Z,14.40
2022-07-29T03:40:19.202Z,14.40
2022-07-29T03:42:47.764Z,14.40
2022-07-29T03:45:19.043Z,14.40
2022-07-29T03:47:57.024Z,14.30
2022-07-29T03:50:27.154Z,14.30
2022-07-29T03:52:54.102Z,14.40
2022-07-29T03:55:21.332Z,14.30
2022-07-29T03:57:50.181Z,14.30
2022-07-29T04:00:17.592Z,14.30
2022-07-29T04:02:49.306Z,14.30
2022-07-29T04:05:17.049Z,14.30
2022-07-29T04:07:48.048Z,14.40
2022-07-29T04:10:16.685Z,14.40
2022-07-29T04:12:43.735Z,14.50
2022-07-29T04:15:11.214Z,14.50
2022-07-29T04:17:38.022Z,14.60
2022-07-29T04:20:05.939Z,14.60
2022-07-29T04:22:32.813Z,14.60
2022-07-29T04:25:03.747Z,14.70
2022-07-29T04:27:30.913Z,14.70
2022-07-29T04:29:57.843Z,14.80
2022-07-29T04:32:26.038Z,14.90
2022-07-29T04:34:52.859Z,14.90
2022-07-29T04:37:19.713Z,15.00
2022-07-29T04:39:46.542Z,15.00
2022-07-29T04:42:13.505Z,15.00
2022-07-29T04:44:42.910Z,15.10
2022-07-29T04:47:10.577Z,15.20
2022-07-29T04:49:40.450Z,15.20
2022-07-29T04:52:07.831Z,15.20
2022-07-29T04:54:34.700Z,15.20
2022-07-29T04:57:01.547Z,15.20
2022-07-29T04:59:28.706Z,15.30
2022-07-29T05:01:55.636Z,15.30
2022-07-29T05:04:22.569Z,15.30
2022-07-29T05:06:49.788Z,15.40
2022-07-29T05:09:16.763Z,15.40
2022-07-29T05:11:43.635Z,15.50
2022-07-29T05:14:10.570Z,15.60
2022-07-29T05:16:37.480Z,15.60
2022-07-29T05:19:04.347Z,15.60
2022-07-29T05:21:31.184Z,15.60
2022-07-29T05:23:58.157Z,15.60
2022-07-29T05:26:25.037Z,15.60
2022-07-29T05:28:51.890Z,15.60
2022-07-29T05:31:18.861Z,15.50
2022-07-29T05:33:45.776Z,15.50
2022-07-29T05:36:12.818Z,15.50
2022-07-29T05:38:39.676Z,15.50
2022-07-29T05:41:06.639Z,15.40
2022-07-29T05:43:33.947Z,15.40
2022-07-29T05:46:00.956Z,15.40
2022-07-29T05:48:28.318Z,15.50
2022-07-29T05:50:55.729Z,15.60
2022-07-29T05:53:22.834Z,15.70
2022-07-29T05:55:50.410Z,15.80
2022-07-29T05:58:17.592Z,15.90
2022-07-29T06:00:45.408Z,16.00
2022-07-29T06:03:12.629Z,16.10
2022-07-29T06:05:39.554Z,16.20
2022-07-29T06:08:09.733Z,16.40
2022-07-29T06:10:36.781Z,16.40
2022-07-29T06:13:03.865Z,16.50
2022-07-29T06:15:30.773Z,16.60
2022-07-29T06:18:00.524Z,16.80
2022-07-29T06:20:32.899Z,16.90
2022-07-29T06:23:00.801Z,16.90
2022-07-29T06:25:31.330Z,16.90
2022-07-29T06:27:59.062Z,17.00
2022-07-29T06:30:26.036Z,17.10
2022-07-29T06:32:53.143Z,17.30
2022-07-29T06:35:38.827Z,17.50
2022-07-29T06:38:30.249Z,17.50
2022-07-29T06:41:11.096Z,17.70
2022-07-29T06:43:51.879Z,17.70
2022-07-29T06:46:22.384Z,17.70
2022-07-29T06:48:50.033Z,17.80
2022-07-29T06:51:22.729Z,17.80
2022-07-29T06:53:59.376Z,17.70
2022-07-29T06:56:39.625Z,17.80
2022-07-29T06:59:08.164Z,17.80
2022-07-29T07:01:35.892Z,17.90
2022-07-29T07:04:03.151Z,17.90
2022-07-29T07:06:30.090Z,17.90
2022-07-29T07:08:57.215Z,18.00
2022-07-29T07:11:24.111Z,18.10
2022-07-29T07:13:50.898Z,18.30
2022-07-29T07:16:18.117Z,18.60
2022-07-29T07:18:46.250Z,18.80
2022-07-29T07:21:19.007Z,18.80
2022-07-29T07:23:46.931Z,19.00
2022-07-29T07:26:13.777Z,19.30
2022-07-29T07:28:40.615Z,19.50
2022-07-29T07:31:07.585Z,19.80
2022-07-29T07:33:34.504Z,20.10
2022-07-29T07:36:01.414Z,20.40
2022-07-29T07:38:28.245Z,20.80
2022-07-29T07:40:55.069Z,20.90
2022-07-29T07:43:22.826Z,20.70
2022-07-29T07:45:49.673Z,20.80
2022-07-29T07:48:16.666Z,21.00
2022-07-29T07:50:44.664Z,21.10
2022-07-29T07:53:11.852Z,21.00
2022-07-29T07:58:30.206Z,21.30
2022-07-29T08:00:57.100Z,21.50
2022-07-29T08:03:23.958Z,21.60
2022-07-29T08:05:52.781Z,21.80
2022-07-29T08:08:19.832Z,21.90
2022-07-29T08:10:53.091Z,21.60
2022-07-29T08:13:24.795Z,21.60
2022-07-29T08:15:58.910Z,21.50
2022-07-29T08:18:27.567Z,21.50
2022-07-29T08:20:54.942Z,21.50
2022-07-29T08:23:23.693Z,21.50
2022-07-29T08:25:52.353Z,21.50
2022-07-29T08:28:22.187Z,21.60
2022-07-29T08:30:53.032Z,21.50
2022-07-29T08:33:19.894Z,21.60
2022-07-29T08:35:46.872Z,21.60
2022-07-29T08:38:13.714Z,21.50
2022-07-29T08:40:40.837Z,21.60
2022-07-29T08:43:09.707Z,21.70
2022-07-29T08:45:48.832Z,21.80
2022-07-29T08:48:21.303Z,22.00
2022-07-29T08:50:48.885Z,22.00
2022-07-29T08:53:17.757Z,22.20
2022-07-29T08:55:46.323Z,22.50
2022-07-29T08:58:15.749Z,22.80
2022-07-29T09:00:45.771Z,23.00
2022-07-29T09:03:18.959Z,23.20
2022-07-29T09:05:49.760Z,23.30
2022-07-29T09:08:17.904Z,23.30
2022-07-29T09:10:45.563Z,23.30
2022-07-29T09:13:12.517Z,23.30
2022-07-29T09:15:39.579Z,23.30
2022-07-29T09:18:06.426Z,23.30
2022-07-29T09:20:53.705Z,23.30
2022-07-29T09:23:23.035Z,23.50
2022-07-29T09:25:51.598Z,23.70
2022-07-29T09:28:19.155Z,24.00
2022-07-29T09:30:59.489Z,23.90
2022-07-29T09:33:35.429Z,23.70
2022-07-29T09:36:07.702Z,23.60
2022-07-29T09:38:34.752Z,23.80
2022-07-29T09:41:06.280Z,23.80
2022-07-29T09:43:34.136Z,24.00
2022-07-29T09:46:21.319Z,23.70
2022-07-29T09:49:10.444Z,23.80
2022-07-29T09:51:38.730Z,24.00
2022-07-29T09:54:29.238Z,23.80
2022-07-29T09:56:57.094Z,23.70
2022-07-29T09:59:27.497Z,23.90
2022-07-29T10:01:55.245Z,24.20
2022-07-29T10:04:22.485Z,24.40
2022-07-29T10:07:04.635Z,24.70
2022-07-29T10:09:33.037Z,24.90
2022-07-29T10:12:16.459Z,25.00
2022-07-29T10:14:43.909Z,25.00
2022-07-29T10:17:11.811Z,24.90
2022-07-29T10:19:39.892Z,24.90
2022-07-29T10:22:11.494Z,25.00
2022-07-29T10:24:39.529Z,25.20
2022-07-29T10:27:09.080Z,25.20
2022-07-29T10:29:36.894Z,25.50
2022-07-29T10:32:16.214Z,25.60
2022-07-29T10:34:58.313Z,25.70
2022-07-29T10:37:46.738Z,25.80
2022-07-29T10:40:45.732Z,26.10
2022-07-29T10:43:42.252Z,26.10
2022-07-29T10:46:10.069Z,26.10
2022-07-29T10:49:09.735Z,26.00
2022-07-29T10:52:06.355Z,26.10
2022-07-29T10:54:36.169Z,26.20
2022-07-29T10:57:17.918Z,26.30
2022-07-29T10:59:46.471Z,26.40
2022-07-29T11:02:42.699Z,26.60
2022-07-29T11:05:20.207Z,26.40
2022-07-29T11:11:25.767Z,26.20
2022-07-29T11:13:57.108Z,26.30
2022-07-29T11:16:25.338Z,26.40
2022-07-29T11:19:11.307Z,26.60
2022-07-29T11:21:53.752Z,26.70
2022-07-29T11:24:32.148Z,26.80
2022-07-29T11:27:08.483Z,26.90
2022-07-29T11:29:40.493Z,26.90
2022-07-29T11:32:18.234Z,27.00
2022-07-29T11:34:51.568Z,27.00
2022-07-29T11:37:20.236Z,26.90
2022-07-29T11:40:01.557Z,26.80
2022-07-29T11:42:33.069Z,26.70
2022-07-29T11:47:52.617Z,26.60
2022-07-29T11:50:33.469Z,26.60
2022-07-29T11:53:08.911Z,26.70
2022-07-29T11:55:38.536Z,26.70
2022-07-29T11:58:25.073Z,26.60
2022-07-29T12:00:55.752Z,26.50
2022-07-29T12:03:35.026Z,26.60
2022-07-29T12:06:04.835Z,26.70
2022-07-29T12:08:43.432Z,26.40
2022-07-29T12:11:21.292Z,26.40
2022-07-29T12:13:49.544Z,26.40
2022-07-29T12:16:25.819Z,26.30
2022-07-29T12:19:03.996Z,26.40
2022-07-29T12:21:53.991Z,26.60
2022-07-29T12:24:26.677Z,26.70
2022-07-29T12:27:02.500Z,27.00
2022-07-29T12:29:35.118Z,27.20
2022-07-29T12:32:03.584Z,27.30
2022-07-29T12:34:31.386Z,27.50
2022-07-29T12:36:58.577Z,27.70
2022-07-29T12:39:28.787Z,27.70
2022-07-29T12:42:03.942Z,27.70
2022-07-29T12:44:52.203Z,27.80
2022-07-29T12:47:20.923Z,27.80
2022-07-29T12:49:48.939Z,27.80
2022-07-29T12:52:30.703Z,27.80
2022-07-29T12:54:58.256Z,27.80
2022-07-29T12:57:25.601Z,27.70
2022-07-29T13:00:01.559Z,27.70
2022-07-29T13:02:28.496Z,27.60
2022-07-29T13:04:59.449Z,27.70
2022-07-29T13:07:55.291Z,27.80
2022-07-29T13:10:23.923Z,27.80
2022-07-29T13:13:12.319Z,27.90
2022-07-29T13:15:44.696Z,28.00
2022-07-29T13:18:32.032Z,28.10
2022-07-29T13:21:12.642Z,28.00
2022-07-29T13:23:39.834Z,28.00
2022-07-29T13:26:08.768Z,27.80
2022-07-29T13:28:35.873Z,27.90
2022-07-29T13:31:02.961Z,27.80
2022-07-29T13:33:30.017Z,27.60
2022-07-29T13:35:56.970Z,27.60
2022-07-29T13:38:23.818Z,27.50
2022-07-29T13:40:58.883Z,27.60
2022-07-29T13:43:25.673Z,27.70
2022-07-29T13:45:53.115Z,27.60
2022-07-29T13:48:19.972Z,27.80
2022-07-29T13:50:47.634Z,27.90
2022-07-29T13:53:18.008Z,28.10
2022-07-29T13:55:45.229Z,28.10
2022-07-29T13:58:12.065Z,28.10
2022-07-29T14:00:38.946Z,28.00
2022-07-29T14:03:07.395Z,27.70
2022-07-29T14:05:34.323Z,27.70
2022-07-29T14:08:01.143Z,27.50
2022-07-29T14:10:28.329Z,27.40
2022-07-29T14:12:55.455Z,27.40
2022-07-29T14:15:22.439Z,27.50
2022-07-29T14:17:49.300Z,27.60
2022-07-29T14:20:17.171Z,27.60
2022-07-29T14:22:45.221Z,27.70
2022-07-29T14:25:14.934Z,27.70
2022-07-29T14:27:43.364Z,27.80
2022-07-29T14:30:10.785Z,27.80
2022-07-29T14:32:37.763Z,27.80
2022-07-29T14:35:05.711Z,27.80
2022-07-29T14:37:39.352Z,27.80
2022-07-29T14:40:08.332Z,27.80
2022-07-29T14:42:35.372Z,27.90
2022-07-29T14:45:02.186Z,27.90
2022-07-29T14:47:29.035Z,28.20
2022-07-29T14:49:55.871Z,28.50
2022-07-29T14:52:22.746Z,28.80
2022-07-29T14:54:49.583Z,28.90
2022-07-29T14:57:16.424Z,28.90
2022-07-29T14:59:43.271Z,28.90
2022-07-29T15:02:10.322Z,28.90
2022-07-29T15:04:37.175Z,28.80
2022-07-29T15:07:04.243Z,28.70
2022-07-29T15:09:31.108Z,28.70
2022-07-29T15:11:58.161Z,28.60
2022-07-29T15:14:25.166Z,28.50
2022-07-29T15:16:52.907Z,28.40
2022-07-29T15:19:20.143Z,28.30
2022-07-29T15:21:59.565Z,28.10
2022-07-29T15:24:27.023Z,28.00
2022-07-29T15:26:54.790Z,28.10
2022-07-29T15:29:22.252Z,28.10
2022-07-29T15:31:49.207Z,28.00
2022-07-29T15:34:16.133Z,28.00
2022-07-29T15:36:51.903Z,28.10
2022-07-29T15:39:20.318Z,28.10
2022-07-29T15:41:47.387Z,28.00
2022-07-29T15:44:14.224Z,28.00
2022-07-29T15:46:59.960Z,28.10
2022-07-29T15:49:46.316Z,28.10
2022-07-29T15:52:24.938Z,28.10
2022-07-29T15:54:54.440Z,28.20
2022-07-29T15:57:21.379Z,28.10
2022-07-29T15:59:48.351Z,28.00
2022-07-29T16:02:15.597Z,28.00
2022-07-29T16:04:42.419Z,27.80
2022-07-29T16:07:09.333Z,27.90
2022-07-29T16:09:36.447Z,27.80
2022-07-29T16:12:05.525Z,27.80
2022-07-29T16:14:45.371Z,27.80
2022-07-29T16:17:14.745Z,27.80
2022-07-29T16:19:42.995Z,27.80
2022-07-29T16:22:10.027Z,28.00
2022-07-29T16:24:37.124Z,28.10
2022-07-29T16:27:04.262Z,28.30
2022-07-29T16:29:31.158Z,28.50
2022-07-29T16:31:58.276Z,28.80
2022-07-29T16:34:25.186Z,29.00
2022-07-29T16:36:52.033Z,29.30
2022-07-29T16:39:18.948Z,29.60
2022-07-29T16:41:45.830Z,29.90
2022-07-29T16:44:12.697Z,30.10
2022-07-29T16:46:41.536Z,30.10
2022-07-29T16:49:08.520Z,30.00
2022-07-29T16:51:35.449Z,30.00
2022-07-29T16:54:02.538Z,29.90
2022-07-29T16:56:29.362Z,30.10
2022-07-29T16:58:58.365Z,30.00
2022-07-29T17:01:25.391Z,30.10
2022-07-29T17:04:07.252Z,30.20
2022-07-29T17:06:40.625Z,30.60
2022-07-29T17:09:09.576Z,30.90
2022-07-29T17:11:52.325Z,31.20
2022-07-29T17:14:25.083Z,31.20
2022-07-29T17:17:01.065Z,31.00
2022-07-29T17:19:35.593Z,30.60
2022-07-29T17:22:18.768Z,30.10
2022-07-29T17:24:47.322Z,29.60
2022-07-29T17:27:14.938Z,29.30
2022-07-29T17:29:42.089Z,29.00
2022-07-29T17:32:09.852Z,28.60
2022-07-29T17:34:38.839Z,28.40
2022-07-29T17:37:06.904Z,28.20
2022-07-29T17:39:35.651Z,27.80
2022-07-29T17:42:05.902Z,27.50
2022-07-29T17:44:36.097Z,27.10
2022-07-29T17:47:04.243Z,26.90
2022-07-29T17:49:31.456Z,26.50
2022-07-29T17:52:00.895Z,26.20
2022-07-29T17:54:28.578Z,26.00
2022-07-29T17:56:55.696Z,25.70
2022-07-29T17:59:22.751Z,25.40
2022-07-29T18:01:49.613Z,25.20
2022-07-29T18:04:20.198Z,25.00
2022-07-29T18:06:47.139Z,24.90
2022-07-29T18:09:14.058Z,24.70
2022-07-29T18:11:41.236Z,24.60
2022-07-29T18:14:12.568Z,24.60
2022-07-29T18:16:39.558Z,24.50
2022-07-29T18:19:06.752Z,24.40
2022-07-29T18:21:42.699Z,24.40
2022-07-29T18:24:19.034Z,24.30
2022-07-29T18:26:45.895Z,24.30
2022-07-29T18:29:12.715Z,24.30
2022-07-29T18:31:41.210Z,24.20
2022-07-29T18:34:08.172Z,24.20
2022-07-29T18:36:35.022Z,24.20
2022-07-29T18:39:01.841Z,24.20
2022-07-29T18:41:29.253Z,24.20
2022-07-29T18:43:56.146Z,24.10
2022-07-29T18:46:23.201Z,24.00
2022-07-29T18:48:52.465Z,24.00
2022-07-29T18:51:19.463Z,24.00
2022-07-29T18:53:46.337Z,23.90
2022-07-29T18:56:13.219Z,23.80
2022-07-29T18:58:40.109Z,23.80
2022-07-29T19:01:07.414Z,23.60
2022-07-29T19:03:35.182Z,23.50
2022-07-29T19:06:02.037Z,23.50
2022-07-29T19:08:28.871Z,23.50
2022-07-29T19:10:56.098Z,23.40
2022-07-29T19:13:23.119Z,23.40
2022-07-29T19:15:50.227Z,23.30
2022-07-29T19:18:17.113Z,23.20
2022-07-29T19:20:44.056Z,23.20
2022-07-29T19:23:11.041Z,23.10
2022-07-29T19:25:53.179Z,23.10
2022-07-29T19:28:22.707Z,23.00
2022-07-29T19:30:50.164Z,22.90
2022-07-29T19:33:18.873Z,22.90
2022-07-29T19:35:47.623Z,22.80
2022-07-29T19:38:16.707Z,22.70
2022-07-29T19:40:43.748Z,22.60
2022-07-29T19:43:51.923Z,22.60
2022-07-29T19:45:57.638Z,22.60
2022-07-29T19:48:24.518Z,22.60
2022-07-29T19:50:51.367Z,22.60
2022-07-29T19:53:18.193Z,22.60
2022-07-29T19:55:45.234Z,22.60
2022-07-29T19:58:12.075Z,22.60
2022-07-29T20:00:38.944Z,22.50
2022-07-29T20:03:07.171Z,22.50
2022-07-29T20:05:34.163Z,22.50
2022-07-29T20:08:01.068Z,22.40
2022-07-29T20:10:28.433Z,22.40
2022-07-29T20:12:55.469Z,22.30
2022-07-29T20:15:22.585Z,22.30
2022-07-29T20:17:52.808Z,22.20
2022-07-29T20:20:23.207Z,22.20
2022-07-29T20:22:50.062Z,22.10
2022-07-29T20:25:16.917Z,22.10
2022-07-29T20:27:43.761Z,21.90
2022-07-29T20:30:13.939Z,21.90
2022-07-29T20:32:41.375Z,21.80
2022-07-29T20:35:08.883Z,21.70
2022-07-29T20:37:55.691Z,21.70
2022-07-29T20:40:22.812Z,21.70
2022-07-29T20:42:49.639Z,21.60
2022-07-29T20:45:16.492Z,21.60
2022-07-29T20:47:43.326Z,21.60
2022-07-29T20:50:10.436Z,21.60
2022-07-29T20:52:39.492Z,21.60
2022-07-29T20:55:08.743Z,21.60
2022-07-29T20:57:38.917Z,21.50
2022-07-29T21:00:07.645Z,21.60
2022-07-29T21:02:34.576Z,21.50
2022-07-29T21:05:01.492Z,21.60
2022-07-29T21:07:28.381Z,21.50
2022-07-29T21:09:55.212Z,21.50
2022-07-29T21:12:22.700Z,21.50
2022-07-29T21:14:49.833Z,21.50
2022-07-29T21:17:17.534Z,21.50
2022-07-29T21:19:48.203Z,21.50
2022-07-29T21:22:15.126Z,21.40
2022-07-29T21:24:42.118Z,21.40
2022-07-29T21:27:27.890Z,21.40
2022-07-29T21:29:55.108Z,21.40
2022-07-29T21:32:29.589Z,21.40
2022-07-29T21:34:58.718Z,21.30
2022-07-29T21:37:25.757Z,21.30
2022-07-29T21:39:52.853Z,21.20
2022-07-29T21:42:19.744Z,21.30
2022-07-29T21:44:46.677Z,21.20
2022-07-29T21:47:13.560Z,21.20
2022-07-29T21:49:40.431Z,21.10
2022-07-29T21:52:08.189Z,21.10
2022-07-29T21:54:35.855Z,21.10
2022-07-29T21:57:03.496Z,21.10
2022-07-29T21:59:30.965Z,21.00
2022-07-29T22:02:00.918Z,21.00
2022-07-29T22:04:31.561Z,21.00
2022-07-29T22:06:59.229Z,21.00
2022-07-29T22:09:26.658Z,21.00
2022-07-29T22:11:54.385Z,20.90
2022-07-29T22:14:21.519Z,20.80
2022-07-29T22:16:48.877Z,20.80
2022-07-29T22:19:16.007Z,20.80
2022-07-29T22:21:43.014Z,20.80
2022-07-29T22:24:10.709Z,20.70
2022-07-29T22:26:38.452Z,20.70
2022-07-29T22:29:05.775Z,20.70
2022-07-29T22:31:32.725Z,20.70
2022-07-29T22:33:59.770Z,20.60
2022-07-29T22:36:26.973Z,20.60
2022-07-29T22:38:53.831Z,20.70
2022-07-29T22:41:20.779Z,20.70
2022-07-29T22:43:47.644Z,20.60
2022-07-29T22:46:14.670Z,20.60
2022-07-29T22:48:41.636Z,20.60
2022-07-29T22:51:08.588Z,20.60
2022-07-29T22:53:37.076Z,20.60
2022-07-29T22:56:04.460Z,20.60
2022-07-29T22:58:31.326Z,20.60
2022-07-29T23:00:58.449Z,20.50
2022-07-29T23:03:25.504Z,20.50
2022-07-29T23:05:52.543Z,20.50
2022-07-29T23:08:19.916Z,20.50
2022-07-29T23:10:47.000Z,20.50
2022-07-29T23:13:14.147Z,20.40
2022-07-29T23:15:42.017Z,20.50
2022-07-29T23:18:09.245Z,20.40
2022-07-29T23:20:36.387Z,20.40
2022-07-29T23:23:03.364Z,20.40
2022-07-29T23:25:30.310Z,20.40
2022-07-29T23:27:57.262Z,20.40
2022-07-29T23:30:24.455Z,20.30
2022-07-29T23:32:51.396Z,20.30
2022-07-29T23:35:18.432Z,20.30
2022-07-29T23:37:45.294Z,20.30
2022-07-29T23:40:14.709Z,20.30
2022-07-29T23:42:42.701Z,20.30
2022-07-29T23:45:10.613Z,20.30
2022-07-29T23:47:37.511Z,20.20
2022-07-29T23:50:05.761Z,20.20
2022-07-29T23:52:32.652Z,20.20
2022-07-29T23:55:37.156Z,20.20
2022-07-29T23:57:46.413Z,20.20
